Time;durP1;ratioP1;P1;durP2;ratioP2;P2;SDS_P1;SDS_P2;PMS_P1;PMS_P2;Temp;Humidity;BMP_temperature;BMP_pressure;BME280_temperature;BME280_humidity;BME280_pressure;Samples;Min_cycle;Max_cycle;Signal;HPM_P1;HPM_P2
2022/07/06 00:01:33;;;;;;;1.60;1.20;;;;;;;;;;4970014;28;20313;-62
2022/07/06 00:04:01;;;;;;;1.10;1.02;;;;;;;;;;4969180;28;20163;-61
2022/07/06 00:06:26;;;;;;;1.92;1.20;;;;;;;;;;4968326;28;20417;-63
2022/07/06 00:08:52;;;;;;;1.88;1.30;;;;;;;;;;4968868;28;20349;-63
2022/07/06 00:11:17;;;;;;;2.05;1.00;;;;;;;;;;4968560;28;20025;-61
2022/07/06 00:13:43;;;;;;;1.00;0.90;;;;;;;;;;4952833;28;20436;-64
2022/07/06 00:16:08;;;;;;;1.27;1.17;;;;;;;;;;4973043;28;20416;-61
2022/07/06 00:18:33;;;;;;;1.60;1.23;;;;;;;;;;4972192;28;20356;-63
2022/07/06 00:20:59;;;;;;;1.63;1.10;;;;;;;;;;4972748;28;20069;-62
2022/07/06 00:23:24;;;;;;;1.20;1.10;;;;;;;;;;4971912;28;20444;-62
2022/07/06 00:25:50;;;;;;;1.80;1.40;;;;;;;;;;4972482;28;20337;-61
2022/07/06 00:28:15;;;;;;;1.25;1.10;;;;;;;;;;4971978;28;20377;-62
2022/07/06 00:30:41;;;;;;;1.80;1.23;;;;;;;;;;4972843;28;20427;-61
2022/07/06 00:33:06;;;;;;;1.27;1.10;;;;;;;;;;4972205;28;20080;-62
2022/07/06 00:35:32;;;;;;;1.55;1.45;;;;;;;;;;4972331;28;20523;-64
2022/07/06 00:37:58;;;;;;;1.90;1.40;;;;;;;;;;4971878;28;20353;-61
2022/07/06 00:40:23;;;;;;;1.02;0.93;;;;;;;;;;4973066;28;20590;-61
2022/07/06 00:42:49;;;;;;;1.63;1.40;;;;;;;;;;4972709;28;20355;-62
2022/07/06 00:45:16;;;;;;;1.40;1.15;;;;;;;;;;4971841;28;20452;-62
2022/07/06 00:47:42;;;;;;;1.42;1.00;;;;;;;;;;4971568;28;20384;-61
2022/07/06 00:50:15;;;;;;;2.03;1.35;;;;;;;;;;4971474;28;20420;-63
2022/07/06 00:52:45;;;;;;;1.33;1.02;;;;;;;;;;4971280;28;20056;-61
2022/07/06 00:55:13;;;;;;;1.10;0.85;;;;;;;;;;4971554;28;20432;-61
2022/07/06 00:57:39;;;;;;;1.10;1.00;;;;;;;;;;4971443;28;20456;-62
2022/07/06 01:00:08;;;;;;;1.02;0.93;;;;;;;;;;4971367;28;20444;-62
2022/07/06 01:02:34;;;;;;;1.75;1.02;;;;;;;;;;4983833;28;20384;-61
2022/07/06 01:05:00;;;;;;;1.48;1.23;;;;;;;;;;4972087;28;20424;-62
2022/07/06 01:07:26;;;;;;;0.95;0.90;;;;;;;;;;4971464;28;20567;-62
2022/07/06 01:09:51;;;;;;;1.58;1.35;;;;;;;;;;4953921;28;20455;-61
2022/07/06 01:12:17;;;;;;;2.03;1.20;;;;;;;;;;4973316;28;20095;-62
2022/07/06 01:14:42;;;;;;;1.13;1.02;;;;;;;;;;4953794;28;20033;-62
2022/07/06 01:17:08;;;;;;;1.55;1.20;;;;;;;;;;4953810;28;20317;-62
2022/07/06 01:19:33;;;;;;;1.42;1.30;;;;;;;;;;4971146;28;20033;-61
2022/07/06 01:21:59;;;;;;;1.92;1.33;;;;;;;;;;4970789;28;20452;-61
2022/07/06 01:24:25;;;;;;;1.75;1.27;;;;;;;;;;4970153;28;20333;-61
2022/07/06 01:26:50;;;;;;;1.75;1.35;;;;;;;;;;4971188;28;20474;-61
2022/07/06 01:29:16;;;;;;;1.92;1.45;;;;;;;;;;4971158;28;20566;-61
2022/07/06 01:31:49;;;;;;;2.80;1.58;;;;;;;;;;4970633;28;20029;-62
2022/07/06 01:34:18;;;;;;;1.30;1.20;;;;;;;;;;4970803;28;20328;-61
2022/07/06 01:36:44;;;;;;;1.60;1.30;;;;;;;;;;4970730;28;20371;-61
2022/07/06 01:39:10;;;;;;;3.67;1.55;;;;;;;;;;4970979;28;20371;-61
2022/07/06 01:41:36;;;;;;;2.63;1.85;;;;;;;;;;4970893;28;20042;-61
2022/07/06 01:44:02;;;;;;;2.20;1.52;;;;;;;;;;4970346;28;20424;-60
2022/07/06 01:46:27;;;;;;;2.58;1.77;;;;;;;;;;4970952;28;20314;-61
2022/07/06 01:48:54;;;;;;;2.10;1.60;;;;;;;;;;4970782;28;20359;-65
2022/07/06 01:51:19;;;;;;;1.70;1.50;;;;;;;;;;4970796;28;20436;-62
2022/07/06 01:53:45;;;;;;;3.25;1.75;;;;;;;;;;4970407;28;20322;-61
2022/07/06 01:56:11;;;;;;;3.30;1.70;;;;;;;;;;4970023;28;20440;-61
2022/07/06 01:58:37;;;;;;;3.20;1.70;;;;;;;;;;4970161;28;20324;-61
2022/07/06 02:01:15;;;;;;;1.95;1.63;;;;;;;;;;4970127;28;20360;-61
2022/07/06 02:03:40;;;;;;;4.72;1.90;;;;;;;;;;4971012;28;20388;-62
2022/07/06 02:06:06;;;;;;;2.05;1.70;;;;;;;;;;4970060;28;20335;-61
2022/07/06 02:08:35;;;;;;;2.92;1.85;;;;;;;;;;4971250;28;20432;-62
2022/07/06 02:11:05;;;;;;;2.72;1.63;;;;;;;;;;4970308;28;20025;-61
2022/07/06 02:13:30;;;;;;;2.65;1.73;;;;;;;;;;4969959;28;20395;-64
2022/07/06 02:15:56;;;;;;;3.08;1.70;;;;;;;;;;4970379;28;20350;-61
2022/07/06 02:18:21;;;;;;;2.13;1.80;;;;;;;;;;4970987;28;20026;-61
2022/07/06 02:20:47;;;;;;;3.13;1.90;;;;;;;;;;4969889;28;20456;-63
2022/07/06 02:23:12;;;;;;;2.35;1.73;;;;;;;;;;4969524;28;20041;-61
2022/07/06 02:25:38;;;;;;;2.20;1.63;;;;;;;;;;4969401;28;20387;-61
2022/07/06 02:28:03;;;;;;;2.92;2.05;;;;;;;;;;4971763;28;20375;-60
2022/07/06 02:30:29;;;;;;;4.05;1.58;;;;;;;;;;4969822;28;20037;-61
2022/07/06 02:32:54;;;;;;;1.75;1.60;;;;;;;;;;4970638;28;20021;-62
2022/07/06 02:35:20;;;;;;;3.85;1.90;;;;;;;;;;4969324;28;20482;-63
2022/07/06 02:37:45;;;;;;;2.22;1.63;;;;;;;;;;4969983;28;20429;-61
2022/07/06 02:40:11;;;;;;;2.53;1.80;;;;;;;;;;4969332;28;20416;-61
2022/07/06 02:42:36;;;;;;;1.77;1.60;;;;;;;;;;4952060;28;20076;-62
2022/07/06 02:45:02;;;;;;;2.22;1.80;;;;;;;;;;4969462;28;20048;-61
2022/07/06 02:47:28;;;;;;;3.00;1.98;;;;;;;;;;4970612;28;20448;-61
2022/07/06 02:49:53;;;;;;;2.38;2.03;;;;;;;;;;4969475;28;20390;-61
2022/07/06 02:52:19;;;;;;;3.72;2.38;;;;;;;;;;4969378;28;20519;-61
2022/07/06 02:54:44;;;;;;;2.22;1.73;;;;;;;;;;4951806;28;20468;-61
2022/07/06 02:57:10;;;;;;;2.65;1.63;;;;;;;;;;4969289;28;20486;-61
2022/07/06 02:59:36;;;;;;;2.95;2.22;;;;;;;;;;4969286;28;20429;-62
2022/07/06 03:02:03;;;;;;;2.97;2.13;;;;;;;;;;4969245;28;20352;-62
2022/07/06 03:04:29;;;;;;;3.10;2.15;;;;;;;;;;4969711;28;20343;-62
2022/07/06 03:06:54;;;;;;;3.53;2.22;;;;;;;;;;4969685;28;20088;-61
2022/07/06 03:09:19;;;;;;;2.13;1.90;;;;;;;;;;4969945;28;20487;-61
2022/07/06 03:11:45;;;;;;;2.72;2.25;;;;;;;;;;4969360;28;20372;-61
2022/07/06 03:14:10;;;;;;;2.30;1.83;;;;;;;;;;4969167;28;20033;-60
2022/07/06 03:16:35;;;;;;;2.10;1.88;;;;;;;;;;4951679;28;20377;-61
2022/07/06 03:19:01;;;;;;;3.63;2.00;;;;;;;;;;4968859;28;20052;-64
2022/07/06 03:21:26;;;;;;;2.13;1.52;;;;;;;;;;4969271;28;20021;-61
2022/07/06 03:23:52;;;;;;;3.05;1.85;;;;;;;;;;4969371;28;20456;-60
2022/07/06 03:26:17;;;;;;;2.72;1.85;;;;;;;;;;4969257;28;20341;-64
2022/07/06 03:28:43;;;;;;;3.03;2.30;;;;;;;;;;4969141;28;20464;-61
2022/07/06 03:31:08;;;;;;;2.25;1.98;;;;;;;;;;4968702;28;20133;-63
2022/07/06 03:33:34;;;;;;;3.78;1.77;;;;;;;;;;4969870;28;20056;-61
2022/07/06 03:35:59;;;;;;;2.47;2.25;;;;;;;;;;4969141;28;20037;-61
2022/07/06 03:38:24;;;;;;;2.60;1.92;;;;;;;;;;4968830;28;20525;-61
2022/07/06 03:40:50;;;;;;;1.77;1.52;;;;;;;;;;4969086;28;20443;-61
2022/07/06 03:43:15;;;;;;;2.00;1.80;;;;;;;;;;4969446;28;20061;-70
2022/07/06 03:45:41;;;;;;;2.92;1.70;;;;;;;;;;4951406;28;20452;-61
2022/07/06 03:48:06;;;;;;;2.10;1.90;;;;;;;;;;4969924;28;20384;-61
2022/07/06 03:50:31;;;;;;;1.70;1.48;;;;;;;;;;4973660;28;20329;-61
2022/07/06 03:52:57;;;;;;;1.80;1.67;;;;;;;;;;4973048;28;20385;-61
2022/07/06 03:55:22;;;;;;;2.30;1.90;;;;;;;;;;4972930;28;20025;-61
2022/07/06 03:57:48;;;;;;;2.15;1.95;;;;;;;;;;4972696;28;20041;-61
2022/07/06 04:00:13;;;;;;;1.58;1.30;;;;;;;;;;4972748;28;20370;-61
2022/07/06 04:02:39;;;;;;;2.28;1.63;;;;;;;;;;4973231;28;20356;-61
2022/07/06 04:05:05;;;;;;;2.08;1.55;;;;;;;;;;4973279;28;20033;-63
2022/07/06 04:07:30;;;;;;;2.42;1.25;;;;;;;;;;4973045;28;20038;-62
2022/07/06 04:09:55;;;;;;;2.00;1.60;;;;;;;;;;4972478;28;20325;-60
2022/07/06 04:12:21;;;;;;;2.20;1.42;;;;;;;;;;4972171;28;20356;-61
2022/07/06 04:14:46;;;;;;;1.70;1.48;;;;;;;;;;4972224;28;20455;-60
2022/07/06 04:19:56;;;;;;;1.80;1.45;;;;;;;;;;4972287;28;20538;-60
2022/07/06 04:22:21;;;;;;;1.48;1.38;;;;;;;;;;4972833;28;20446;-61
2022/07/06 04:24:46;;;;;;;4.28;1.58;;;;;;;;;;4974118;28;20451;-61
2022/07/06 04:27:12;;;;;;;1.63;1.52;;;;;;;;;;4971691;28;20478;-60
2022/07/06 04:29:37;;;;;;;1.77;1.67;;;;;;;;;;4972337;28;20455;-61
2022/07/06 04:32:03;;;;;;;1.75;1.50;;;;;;;;;;4971759;28;20498;-61
2022/07/06 04:34:28;;;;;;;2.22;1.40;;;;;;;;;;4972108;28;20503;-60
2022/07/06 04:36:54;;;;;;;1.90;1.70;;;;;;;;;;4971883;28;20021;-61
2022/07/06 04:39:19;;;;;;;1.33;1.23;;;;;;;;;;4972412;28;20459;-61
2022/07/06 04:41:44;;;;;;;1.83;1.30;;;;;;;;;;4972363;28;20401;-61
2022/07/06 04:44:10;;;;;;;5.55;1.70;;;;;;;;;;4971593;28;20451;-61
2022/07/06 04:46:35;;;;;;;2.17;1.90;;;;;;;;;;4971910;28;20425;-61
2022/07/06 04:49:01;;;;;;;1.90;1.60;;;;;;;;;;4971574;28;20424;-60
2022/07/06 04:51:26;;;;;;;2.33;1.58;;;;;;;;;;4971508;28;20456;-60
2022/07/06 04:53:52;;;;;;;1.67;1.50;;;;;;;;;;4971687;28;20507;-61
2022/07/06 04:56:17;;;;;;;1.48;1.38;;;;;;;;;;4972475;28;20085;-60
2022/07/06 04:58:42;;;;;;;3.50;1.60;;;;;;;;;;4972178;28;20609;-60
2022/07/06 05:01:08;;;;;;;2.03;1.60;;;;;;;;;;4971676;28;20029;-65
2022/07/06 05:03:39;;;;;;;1.77;1.40;;;;;;;;;;4971700;28;20400;-60
2022/07/06 05:06:05;;;;;;;1.55;1.40;;;;;;;;;;4971239;28;20513;-61
2022/07/06 05:08:31;;;;;;;2.88;1.50;;;;;;;;;;4971712;28;20336;-62
2022/07/06 05:10:56;;;;;;;3.08;2.00;;;;;;;;;;4971449;28;20022;-60
2022/07/06 05:13:22;;;;;;;1.88;1.60;;;;;;;;;;4953497;28;20347;-60
2022/07/06 05:15:47;;;;;;;1.92;1.60;;;;;;;;;;4972646;28;20341;-61
2022/07/06 05:18:12;;;;;;;2.42;1.40;;;;;;;;;;4970583;28;20325;-61
2022/07/06 05:20:38;;;;;;;2.03;1.35;;;;;;;;;;4970876;28;20116;-61
2022/07/06 05:23:03;;;;;;;1.60;1.30;;;;;;;;;;4971001;28;20412;-61
2022/07/06 05:25:28;;;;;;;1.45;1.10;;;;;;;;;;4970814;28;20460;-61
2022/07/06 05:27:54;;;;;;;1.60;1.40;;;;;;;;;;4972165;28;20351;-60
2022/07/06 05:30:19;;;;;;;1.70;1.42;;;;;;;;;;4952945;28;20451;-60
2022/07/06 05:32:45;;;;;;;1.83;1.38;;;;;;;;;;4970947;28;20380;-60
2022/07/06 05:35:10;;;;;;;2.30;1.42;;;;;;;;;;4971702;28;20099;-62
2022/07/06 05:37:36;;;;;;;2.33;1.27;;;;;;;;;;4970909;28;20053;-60
2022/07/06 05:40:01;;;;;;;1.75;1.40;;;;;;;;;;4970461;28;20424;-61
2022/07/06 05:42:27;;;;;;;3.00;1.38;;;;;;;;;;4970222;28;20209;-60
2022/07/06 05:44:56;;;;;;;1.50;1.40;;;;;;;;;;4970490;28;20358;-60
2022/07/06 05:50:12;;;;;;;1.55;1.45;;;;;;;;;;4972610;28;20056;-60
2022/07/06 05:52:42;;;;;;;2.47;1.63;;;;;;;;;;4970822;28;20369;-60
2022/07/06 05:55:11;;;;;;;1.70;1.52;;;;;;;;;;4970642;28;20061;-60
2022/07/06 05:57:38;;;;;;;1.95;1.30;;;;;;;;;;4971329;28;20393;-60
2022/07/06 06:00:05;;;;;;;3.25;1.40;;;;;;;;;;4970209;28;20372;-60
2022/07/06 06:02:38;;;;;;;1.33;1.13;;;;;;;;;;4970359;28;20490;-60
2022/07/06 06:05:05;;;;;;;1.50;1.33;;;;;;;;;;4970416;28;20459;-60
2022/07/06 06:07:30;;;;;;;1.77;1.30;;;;;;;;;;4969771;28;20330;-63
2022/07/06 06:09:55;;;;;;;1.38;1.27;;;;;;;;;;4970126;28;20487;-60
2022/07/06 06:12:21;;;;;;;1.75;1.30;;;;;;;;;;4969610;28;20484;-61
2022/07/06 06:14:46;;;;;;;4.55;1.48;;;;;;;;;;4970591;28;20025;-60
2022/07/06 06:17:11;;;;;;;2.45;1.55;;;;;;;;;;4970864;28;20340;-60
2022/07/06 06:19:37;;;;;;;1.35;1.25;;;;;;;;;;4969595;28;20048;-62
2022/07/06 06:22:03;;;;;;;1.80;1.60;;;;;;;;;;4970867;28;20422;-60
2022/07/06 06:24:28;;;;;;;2.00;1.65;;;;;;;;;;4969899;28;20458;-60
2022/07/06 06:26:53;;;;;;;2.20;1.73;;;;;;;;;;4969313;28;20514;-61
2022/07/06 06:29:19;;;;;;;2.20;1.60;;;;;;;;;;4969936;28;20422;-59
2022/07/06 06:31:44;;;;;;;2.20;1.70;;;;;;;;;;4970475;28;20077;-61
2022/07/06 06:34:10;;;;;;;2.30;1.85;;;;;;;;;;4969877;28;20486;-60
2022/07/06 06:36:35;;;;;;;1.85;1.40;;;;;;;;;;4969425;28;20487;-61
2022/07/06 06:39:02;;;;;;;2.03;1.42;;;;;;;;;;4970099;28;20499;-61
2022/07/06 06:41:27;;;;;;;2.20;1.58;;;;;;;;;;4969179;28;20505;-61
2022/07/06 06:43:52;;;;;;;1.98;1.55;;;;;;;;;;4969869;28;20432;-62
2022/07/06 06:46:18;;;;;;;1.65;1.50;;;;;;;;;;4969729;28;20543;-62
2022/07/06 06:48:43;;;;;;;1.88;1.58;;;;;;;;;;4970948;28;20416;-59
2022/07/06 06:51:09;;;;;;;2.20;1.65;;;;;;;;;;4969615;28;20318;-63
2022/07/06 06:53:34;;;;;;;2.22;1.52;;;;;;;;;;4969491;28;20416;-60
2022/07/06 06:55:59;;;;;;;1.52;1.42;;;;;;;;;;4970420;28;20447;-61
2022/07/06 06:58:25;;;;;;;1.45;1.30;;;;;;;;;;4970622;28;20508;-60
2022/07/06 07:00:51;;;;;;;2.20;1.38;;;;;;;;;;4969430;28;20460;-60
2022/07/06 07:03:16;;;;;;;1.65;1.45;;;;;;;;;;4969177;28;20125;-62
2022/07/06 07:05:41;;;;;;;1.67;1.48;;;;;;;;;;4951713;28;20484;-60
2022/07/06 07:08:07;;;;;;;2.17;1.83;;;;;;;;;;4969084;28;20391;-61
2022/07/06 07:10:32;;;;;;;1.50;1.40;;;;;;;;;;4969087;28;20507;-60
2022/07/06 07:12:58;;;;;;;4.53;1.90;;;;;;;;;;4970058;28;20136;-60
2022/07/06 07:15:23;;;;;;;1.65;1.42;;;;;;;;;;4969210;28;20376;-62
2022/07/06 07:17:49;;;;;;;1.80;1.60;;;;;;;;;;4969294;28;20440;-60
2022/07/06 07:20:14;;;;;;;1.70;1.30;;;;;;;;;;4969653;28;20515;-61
2022/07/06 07:22:40;;;;;;;1.95;1.40;;;;;;;;;;4970241;28;20037;-60
2022/07/06 07:25:05;;;;;;;1.38;1.27;;;;;;;;;;4972842;28;20420;-61
2022/07/06 07:27:31;;;;;;;1.90;1.55;;;;;;;;;;4973489;28;20440;-60
2022/07/06 07:29:56;;;;;;;2.25;1.60;;;;;;;;;;4973217;28;20353;-61
2022/07/06 07:32:22;;;;;;;2.20;1.80;;;;;;;;;;4973083;28;20440;-60
2022/07/06 07:34:47;;;;;;;3.03;1.70;;;;;;;;;;4973150;28;20037;-60
2022/07/06 07:37:12;;;;;;;2.58;1.50;;;;;;;;;;4973285;28;20423;-61
2022/07/06 07:39:38;;;;;;;3.33;1.77;;;;;;;;;;4972948;28;20327;-60
2022/07/06 07:42:03;;;;;;;1.73;1.52;;;;;;;;;;4972843;28;20387;-60
2022/07/06 07:44:29;;;;;;;2.80;1.88;;;;;;;;;;4972936;28;20356;-61
2022/07/06 07:46:54;;;;;;;2.42;2.00;;;;;;;;;;4972991;28;20497;-60
2022/07/06 07:49:21;;;;;;;1.90;1.63;;;;;;;;;;4972793;28;20402;-60
2022/07/06 07:51:47;;;;;;;4.05;2.47;;;;;;;;;;4972805;28;20320;-65
2022/07/06 07:54:12;;;;;;;2.80;2.00;;;;;;;;;;4972695;28;20432;-60
2022/07/06 07:56:40;;;;;;;3.08;1.88;;;;;;;;;;4973057;28;20436;-61
2022/07/06 07:59:06;;;;;;;2.30;1.80;;;;;;;;;;4972799;28;20498;-60
2022/07/06 08:01:32;;;;;;;2.42;2.03;;;;;;;;;;4972776;28;20421;-60
2022/07/06 08:03:58;;;;;;;3.38;2.03;;;;;;;;;;4972621;28;20348;-60
2022/07/06 08:06:23;;;;;;;2.42;1.75;;;;;;;;;;4973583;28;20372;-60
2022/07/06 08:08:48;;;;;;;3.13;2.20;;;;;;;;;;4973261;28;20436;-60
2022/07/06 08:11:14;;;;;;;2.50;2.00;;;;;;;;;;4972710;28;20436;-60
2022/07/06 08:13:39;;;;;;;3.38;2.35;;;;;;;;;;4973912;28;20330;-59
2022/07/06 08:16:05;;;;;;;2.53;2.22;;;;;;;;;;4973628;28;20340;-60
2022/07/06 08:18:30;;;;;;;2.88;2.00;;;;;;;;;;4973571;28;20525;-60
2022/07/06 08:20:56;;;;;;;2.00;1.80;;;;;;;;;;4972015;28;20421;-61
2022/07/06 08:23:22;;;;;;;3.45;1.80;;;;;;;;;;4972558;28;20339;-61
2022/07/06 08:25:48;;;;;;;2.33;1.70;;;;;;;;;;4971745;28;20407;-60
2022/07/06 08:28:13;;;;;;;3.22;2.17;;;;;;;;;;4972289;28;20409;-61
2022/07/06 08:30:38;;;;;;;3.05;2.33;;;;;;;;;;4973361;28;20413;-60
2022/07/06 08:33:04;;;;;;;2.95;2.35;;;;;;;;;;4971618;28;20399;-63
2022/07/06 08:35:29;;;;;;;3.30;2.40;;;;;;;;;;4973480;28;20547;-59
2022/07/06 08:37:55;;;;;;;3.05;2.15;;;;;;;;;;4971767;28;20394;-61
2022/07/06 08:40:20;;;;;;;2.30;2.10;;;;;;;;;;4972275;28;20491;-62
2022/07/06 08:42:48;;;;;;;2.88;2.30;;;;;;;;;;4972058;28;20029;-61
2022/07/06 08:45:13;;;;;;;4.20;2.13;;;;;;;;;;4954410;28;20418;-60
2022/07/06 08:47:41;;;;;;;3.45;2.70;;;;;;;;;;4954225;28;20056;-62
2022/07/06 08:50:09;;;;;;;3.70;3.13;;;;;;;;;;4972270;28;20124;-61
2022/07/06 08:52:35;;;;;;;3.45;2.63;;;;;;;;;;4971923;28;20408;-60
2022/07/06 08:55:02;;;;;;;7.93;3.10;;;;;;;;;;4953978;28;20462;-60
2022/07/06 08:57:28;;;;;;;2.83;2.47;;;;;;;;;;4971101;28;20387;-61
2022/07/06 08:59:54;;;;;;;3.97;3.08;;;;;;;;;;4953856;28;20356;-60
2022/07/06 09:02:23;;;;;;;3.65;2.95;;;;;;;;;;4970999;28;20056;-60
2022/07/06 09:04:50;;;;;;;2.97;2.67;;;;;;;;;;4953929;28;20391;-60
2022/07/06 09:07:17;;;;;;;3.30;2.80;;;;;;;;;;4953947;28;20455;-60
2022/07/06 09:09:44;;;;;;;3.80;2.92;;;;;;;;;;4971752;28;20375;-62
2022/07/06 09:12:13;;;;;;;3.05;2.75;;;;;;;;;;4953895;28;20407;-60
2022/07/06 09:14:39;;;;;;;2.67;2.40;;;;;;;;;;4971378;28;20404;-60
2022/07/06 09:17:06;;;;;;;5.40;3.08;;;;;;;;;;4970954;28;20324;-60
2022/07/06 09:19:33;;;;;;;3.17;2.88;;;;;;;;;;4971252;28;20440;-60
2022/07/06 09:21:59;;;;;;;3.35;3.05;;;;;;;;;;4971616;28;20549;-59
2022/07/06 09:24:26;;;;;;;5.43;2.63;;;;;;;;;;4972162;28;20487;-59
2022/07/06 09:26:54;;;;;;;3.50;2.67;;;;;;;;;;4971991;28;20314;-59
2022/07/06 09:29:24;;;;;;;;;;;;;;;;;;4970951;28;20451;-60
2022/07/06 09:31:57;;;;;;;3.00;2.38;;;;;;;;;;4970224;28;20228;-59
2022/07/06 09:34:23;;;;;;;4.43;2.58;;;;;;;;;;4971327;28;20443;-59
2022/07/06 09:36:49;;;;;;;3.92;2.53;;;;;;;;;;4970981;28;20457;-60
2022/07/06 09:39:20;;;;;;;3.30;2.58;;;;;;;;;;4971541;28;20112;-60
2022/07/06 09:41:46;;;;;;;3.92;2.22;;;;;;;;;;4953121;28;20095;-60
2022/07/06 09:44:12;;;;;;;4.25;2.58;;;;;;;;;;4970659;28;20432;-60
2022/07/06 09:46:41;;;;;;;2.83;2.35;;;;;;;;;;4969920;28;20306;-60
2022/07/06 09:49:07;;;;;;;3.10;2.10;;;;;;;;;;4970406;28;20407;-60
2022/07/06 09:51:36;;;;;;;2.88;2.20;;;;;;;;;;4970547;28;20544;-59
2022/07/06 09:54:04;;;;;;;;;;;;;;;;;;4970791;28;20381;-62
2022/07/06 09:56:40;;;;;;;2.50;2.13;;;;;;;;;;4969142;28;20319;-59
2022/07/06 09:59:12;;;;;;;3.03;2.25;;;;;;;;;;4970555;28;20535;-60
2022/07/06 10:01:38;;;;;;;3.13;2.38;;;;;;;;;;4970435;28;20404;-60
2022/07/06 10:04:08;;;;;;;2.83;2.13;;;;;;;;;;4971022;28;20025;-61
2022/07/06 10:06:34;;;;;;;4.13;2.35;;;;;;;;;;4970336;28;20521;-60
2022/07/06 10:09:00;;;;;;;3.17;2.47;;;;;;;;;;4971945;28;20375;-60
2022/07/06 10:11:26;;;;;;;2.45;1.90;;;;;;;;;;4969934;28;20412;-60
2022/07/06 10:13:55;;;;;;;2.65;2.28;;;;;;;;;;4970270;28;20029;-60
2022/07/06 10:16:24;;;;;;;7.47;2.00;;;;;;;;;;4969728;28;20054;-60
2022/07/06 10:18:55;;;;;;;3.03;2.20;;;;;;;;;;4969880;28;20436;-60
2022/07/06 10:21:24;;;;;;;3.83;2.20;;;;;;;;;;4971759;28;20448;-60
2022/07/06 10:23:50;;;;;;;2.53;1.95;;;;;;;;;;4970044;28;20698;-60
2022/07/06 10:26:16;;;;;;;4.90;2.22;;;;;;;;;;4969759;28;20468;-60
2022/07/06 10:28:42;;;;;;;1.95;1.60;;;;;;;;;;4970746;28;20334;-61
2022/07/06 10:31:08;;;;;;;4.78;2.00;;;;;;;;;;4969504;28;20150;-60
2022/07/06 10:33:34;;;;;;;3.20;2.00;;;;;;;;;;4969831;28;20159;-60
2022/07/06 10:35:59;;;;;;;3.15;1.80;;;;;;;;;;4969520;28;20057;-61
2022/07/06 10:38:35;;;;;;;3.30;2.47;;;;;;;;;;4952319;28;20029;-60
2022/07/06 10:41:09;;;;;;;2.30;1.95;;;;;;;;;;4969717;28;20311;-61
2022/07/06 10:43:42;;;;;;;1.70;1.60;;;;;;;;;;4969342;28;20033;-61
2022/07/06 10:46:13;;;;;;;3.90;2.25;;;;;;;;;;4969909;28;20359;-60
2022/07/06 10:48:40;;;;;;;2.00;1.75;;;;;;;;;;4969597;28;20519;-62
2022/07/06 10:51:06;;;;;;;2.65;2.10;;;;;;;;;;4969554;28;20448;-61
2022/07/06 10:53:37;;;;;;;2.30;1.70;;;;;;;;;;4970182;28;20338;-60
2022/07/06 10:56:05;;;;;;;2.10;1.90;;;;;;;;;;4969814;28;20349;-60
2022/07/06 10:58:46;;;;;;;2.65;1.92;;;;;;;;;;4971053;28;20383;-60
2022/07/06 11:01:11;;;;;;;2.97;2.00;;;;;;;;;;4968972;28;20511;-60
2022/07/06 11:03:40;;;;;;;2.40;2.00;;;;;;;;;;4969240;28;20320;-60
2022/07/06 11:06:09;;;;;;;1.85;1.67;;;;;;;;;;4970005;28;20340;-65
2022/07/06 11:09:01;;;;;;;4.88;1.92;;;;;;;;;;4969448;28;20583;-63
2022/07/06 11:11:32;;;;;;;6.50;1.77;;;;;;;;;;4970935;28;20536;-61
2022/07/06 11:14:05;;;;;;;2.50;2.05;;;;;;;;;;4970843;28;20423;-61
2022/07/06 11:16:34;;;;;;;2.25;1.60;;;;;;;;;;4969284;28;20290;-62
2022/07/06 11:19:14;;;;;;;1.55;1.45;;;;;;;;;;4969744;28;20459;-61
2022/07/06 11:21:41;;;;;;;1.50;1.40;;;;;;;;;;4969370;28;20395;-61
2022/07/06 11:24:09;;;;;;;3.05;1.50;;;;;;;;;;4969265;28;20376;-65
2022/07/06 11:26:36;;;;;;;2.28;1.65;;;;;;;;;;4969154;28;20468;-60
2022/07/06 11:29:04;;;;;;;1.50;1.40;;;;;;;;;;4968921;28;20371;-61
2022/07/06 11:31:30;;;;;;;2.35;1.63;;;;;;;;;;4969105;28;20428;-61
2022/07/06 11:33:55;;;;;;;2.10;1.52;;;;;;;;;;4969201;28;20510;-61
2022/07/06 11:36:22;;;;;;;2.08;1.42;;;;;;;;;;4968767;28;20139;-61
2022/07/06 11:38:49;;;;;;;2.13;1.70;;;;;;;;;;4970207;28;20463;-61
2022/07/06 11:41:15;;;;;;;1.50;1.40;;;;;;;;;;4968622;28;20123;-61
2022/07/06 11:43:45;;;;;;;1.60;1.50;;;;;;;;;;4970044;28;20328;-61
2022/07/06 11:46:27;;;;;;;1.90;1.40;;;;;;;;;;4968872;28;20380;-61
2022/07/06 11:49:03;;;;;;;2.15;1.48;;;;;;;;;;4969053;28;20380;-61
2022/07/06 11:51:30;;;;;;;2.92;1.17;;;;;;;;;;4969124;28;20452;-61
2022/07/06 11:54:01;;;;;;;3.83;1.50;;;;;;;;;;4969778;28;20502;-61
2022/07/06 11:56:29;;;;;;;1.52;1.42;;;;;;;;;;4968861;28;20443;-61
2022/07/06 11:58:56;;;;;;;;;;;;;;;;;;4969647;28;20487;-61
2022/07/06 12:01:26;;;;;;;1.30;1.10;;;;;;;;;;4968570;28;20274;-60
2022/07/06 12:03:52;;;;;;;1.42;1.05;;;;;;;;;;4969065;28;20451;-60
2022/07/06 12:06:21;;;;;;;1.15;1.05;;;;;;;;;;4968570;28;20440;-61
2022/07/06 12:08:55;;;;;;;1.40;1.20;;;;;;;;;;4970274;28;20515;-60
2022/07/06 12:11:25;;;;;;;2.30;1.30;;;;;;;;;;4972263;28;20464;-61
2022/07/06 12:13:52;;;;;;;1.85;1.40;;;;;;;;;;4972510;28;20463;-61
2022/07/06 12:16:18;;;;;;;1.85;1.10;;;;;;;;;;4972058;28;20463;-62
2022/07/06 12:18:45;;;;;;;4.20;1.10;;;;;;;;;;4972494;28;20030;-62
2022/07/06 12:21:16;;;;;;;1.48;1.17;;;;;;;;;;4972184;28;20404;-60
2022/07/06 12:23:46;;;;;;;1.60;1.15;;;;;;;;;;4955298;28;20336;-62
2022/07/06 12:26:14;;;;;;;1.95;1.40;;;;;;;;;;4971966;28;20421;-62
2022/07/06 12:28:39;;;;;;;2.60;1.55;;;;;;;;;;4972313;28;20419;-62
2022/07/06 12:31:06;;;;;;;2.25;1.20;;;;;;;;;;4972277;28;20094;-61
2022/07/06 12:33:32;;;;;;;3.92;1.45;;;;;;;;;;4973264;28;20929;-62
2022/07/06 12:36:09;;;;;;;0.85;0.82;;;;;;;;;;4954313;28;20508;-61
2022/07/06 12:38:34;;;;;;;1.15;1.00;;;;;;;;;;4973804;28;20351;-61
2022/07/06 12:41:02;;;;;;;1.88;1.15;;;;;;;;;;4971006;28;20030;-62
2022/07/06 12:43:41;;;;;;;2.25;1.55;;;;;;;;;;4971604;28;20359;-63
2022/07/06 12:46:35;;;;;;;;;;;;;;;;;;4972260;28;20083;-62
2022/07/06 12:49:03;;;;;;;1.10;1.00;;;;;;;;;;4958690;28;20390;-62
2022/07/06 12:51:28;;;;;;;4.88;1.27;;;;;;;;;;4971700;28;20436;-62
2022/07/06 12:54:11;;;;;;;1.40;1.08;;;;;;;;;;4973279;28;20343;-62
2022/07/06 12:56:37;;;;;;;2.08;1.30;;;;;;;;;;4972646;28;20464;-62
2022/07/06 12:59:02;;;;;;;2.55;1.30;;;;;;;;;;4974012;28;20401;-62
2022/07/06 13:01:28;;;;;;;1.63;1.00;;;;;;;;;;4971660;28;20347;-61
2022/07/06 13:03:57;;;;;;;2.00;1.00;;;;;;;;;;4971296;28;20080;-62
2022/07/06 13:06:30;;;;;;;1.40;1.10;;;;;;;;;;4972144;28;20322;-61
2022/07/06 13:08:56;;;;;;;1.38;0.90;;;;;;;;;;4970894;28;20412;-62
2022/07/06 13:11:21;;;;;;;1.13;0.90;;;;;;;;;;4971445;28;20455;-62
2022/07/06 13:13:47;;;;;;;2.22;0.80;;;;;;;;;;4972596;28;20037;-61
2022/07/06 13:16:12;;;;;;;1.23;1.00;;;;;;;;;;4972084;28;20424;-61
2022/07/06 13:18:37;;;;;;;1.23;1.05;;;;;;;;;;4971526;28;20333;-62
2022/07/06 13:21:03;;;;;;;1.48;1.15;;;;;;;;;;4971388;28;20443;-61
2022/07/06 13:23:28;;;;;;;1.30;1.10;;;;;;;;;;4971139;28;20401;-62
2022/07/06 13:25:53;;;;;;;1.60;1.23;;;;;;;;;;4971238;28;20349;-62
2022/07/06 13:28:19;;;;;;;1.13;0.90;;;;;;;;;;4971730;28;20033;-62
2022/07/06 13:30:44;;;;;;;2.20;1.15;;;;;;;;;;4971362;28;20368;-62
2022/07/06 13:33:09;;;;;;;1.70;1.00;;;;;;;;;;4971121;28;20347;-61
2022/07/06 13:35:35;;;;;;;1.63;0.88;;;;;;;;;;4970681;28;20417;-61
2022/07/06 13:38:01;;;;;;;2.13;1.38;;;;;;;;;;4971071;28;20445;-61
2022/07/06 13:40:26;;;;;;;1.27;1.10;;;;;;;;;;4970769;28;20413;-61
2022/07/06 13:42:54;;;;;;;1.90;1.33;;;;;;;;;;4970476;28;20440;-61
2022/07/06 13:45:19;;;;;;;1.50;1.10;;;;;;;;;;4970827;28;20486;-62
2022/07/06 13:47:45;;;;;;;1.70;1.23;;;;;;;;;;4970955;28;20436;-61
2022/07/06 13:50:10;;;;;;;2.65;1.17;;;;;;;;;;4970669;28;20424;-61
2022/07/06 13:52:36;;;;;;;1.20;1.10;;;;;;;;;;4970780;28;20347;-62
2022/07/06 13:55:01;;;;;;;1.80;0.88;;;;;;;;;;4970901;28;20025;-61
2022/07/06 13:57:26;;;;;;;1.88;1.02;;;;;;;;;;4970372;28;20447;-61
2022/07/06 13:59:52;;;;;;;1.60;1.00;;;;;;;;;;4971328;28;20332;-61
2022/07/06 14:02:17;;;;;;;1.50;1.08;;;;;;;;;;4970441;28;20587;-61
2022/07/06 14:04:42;;;;;;;2.80;0.93;;;;;;;;;;4969959;28;20025;-62
2022/07/06 14:07:08;;;;;;;1.52;0.98;;;;;;;;;;4970211;28;20314;-61
2022/07/06 14:09:33;;;;;;;1.48;1.08;;;;;;;;;;4953158;28;20029;-61
2022/07/06 14:12:00;;;;;;;1.27;1.02;;;;;;;;;;4970835;28;20467;-62
2022/07/06 14:14:25;;;;;;;1.30;1.02;;;;;;;;;;4970288;28;20022;-62
2022/07/06 14:16:51;;;;;;;1.55;1.10;;;;;;;;;;4969932;28;20451;-61
2022/07/06 14:19:16;;;;;;;3.47;1.17;;;;;;;;;;4970281;28;20454;-61
2022/07/06 14:21:42;;;;;;;3.53;1.00;;;;;;;;;;4970142;28;20421;-62
2022/07/06 14:24:07;;;;;;;2.25;1.13;;;;;;;;;;4970069;28;20375;-61
2022/07/06 14:26:33;;;;;;;3.22;1.20;;;;;;;;;;4969491;28;20045;-61
2022/07/06 14:28:59;;;;;;;1.52;1.20;;;;;;;;;;4970052;28;20029;-62
2022/07/06 14:31:24;;;;;;;1.27;1.00;;;;;;;;;;4969408;28;20026;-62
2022/07/06 14:33:50;;;;;;;1.40;1.10;;;;;;;;;;4970107;28;20400;-61
2022/07/06 14:36:16;;;;;;;1.50;1.08;;;;;;;;;;4969697;28;20379;-62
2022/07/06 14:38:41;;;;;;;1.45;1.00;;;;;;;;;;4970691;28;20113;-62
2022/07/06 14:41:06;;;;;;;0.98;0.85;;;;;;;;;;4969467;28;20475;-61
2022/07/06 14:43:32;;;;;;;1.02;0.88;;;;;;;;;;4970038;28;20441;-61
2022/07/06 14:45:57;;;;;;;2.33;0.80;;;;;;;;;;4969669;28;20096;-62